Aérodrome :
LOGIN :

S'inscrire | Disclaimer

   EN    FR    IT 

 










Légende :    VFR   VFR Marginal   IFR   IFR Intensif   IFR Très Intensif
Visi : 
Plafond : 
>= 8 km
>= 3000ft
5 à 8 km
1000 à 3000 ft
1500m à 5 km
500 à 1000 ft
800 à 1500m
200 à 500 ft
< 800m
< 200 ft
Symboles :   Orages  Brouillard  Fortes neiges  Fortes précipitations  Vent > 20 kt
SIGMETs :   Divers  Orages  Givrage  Turbulence  Onde Orograph.  Cendres Volcan.






- Altitude de l'aérodrome : 17 ft
- Code IATA : GRQ


EHGG - Groningen Eelde

DERNIER METAR :
  • 090455Z AUTO 17009KT 9999 NSC 12/10 Q1003 NOSIG

METARs EXPIRÉS :
  • 090425Z AUTO 17008KT 140V200 9999 NSC 12/09 Q1003 NOSIG
  • 090355Z AUTO 17008KT 140V200 9999 NSC 11/09 Q1004
  • 090325Z AUTO 17006KT 9999 NCD 11/09 Q1004
  • 090255Z AUTO 17007KT 9999 NCD 12/10 Q1004
  • 090225Z AUTO 18006KT 150V210 9999 NCD 12/10 Q1004

TAF TAF EHGG
Valide du 09 à 00h jusqu'au 10 à 06h UTC


082304Z 0900/1006 18010KT CAVOK
PROB40
TEMPO 0910/0914 24018G30KT 3500 TSRA SCT050CB



MET'MAP, la Météo Aéronautique d'un coup d'oeil ! - Copyright ORBIFLY Décembre 2007 - Disclaimer

ORBIFLY MET'MAP TEAM :

Programmation & Développement : Alexandra Zaïnal
Sur une idée originale de : Baudouin d'Aumeries
Assistance à la programmation : Marc-Olivier Méhu
Soutien technique & logistique : Manuel Goepfert

Contact : metmap@orbifly.com




SOURCES & CREDITS :

   NOAA